Time;durP1;ratioP1;P1;durP2;ratioP2;P2;SDS_P1;SDS_P2;PMS_P1;PMS_P2;Temp;Humidity;BMP_temperature;BMP_pressure;BME280_temperature;BME280_humidity;BME280_pressure;Samples;Min_cycle;Max_cycle;Signal;HPM_P1;HPM_P2
2022/09/23 00:00:25;;;;;;;6.60;5.10;;;10.90;99.90;;;;;;5040316;28;20767;-54
2022/09/23 00:02:53;;;;;;;7.07;4.70;;;10.90;99.90;;;;;;5041597;28;20483;-53
2022/09/23 00:05:20;;;;;;;8.97;4.90;;;10.90;99.90;;;;;;5042396;28;20761;-54
2022/09/23 00:07:47;;;;;;;9.40;4.90;;;10.90;99.90;;;;;;5039791;28;20444;-55
2022/09/23 00:10:14;;;;;;;7.50;5.17;;;10.90;99.90;;;;;;5038910;28;20571;-49
2022/09/23 00:12:41;;;;;;;8.53;5.07;;;10.90;99.90;;;;;;5039657;28;20454;-52
2022/09/23 00:15:10;;;;;;;5.70;4.43;;;10.90;99.90;;;;;;5039206;28;20861;-55
2022/09/23 00:17:37;;;;;;;5.50;4.30;;;10.90;99.90;;;;;;5039003;28;20448;-55
2022/09/23 00:20:08;;;;;;;6.23;4.60;;;10.80;99.90;;;;;;5038755;28;20468;-53
2022/09/23 00:22:37;;;;;;;5.90;4.67;;;10.80;99.90;;;;;;5039411;28;20432;-56
2022/09/23 00:25:05;;;;;;;8.23;4.93;;;10.80;99.90;;;;;;5039287;28;20472;-54
2022/09/23 00:27:32;;;;;;;5.83;3.83;;;10.80;99.90;;;;;;5039858;28;20467;-54
2022/09/23 00:29:59;;;;;;;9.50;4.90;;;10.80;99.90;;;;;;5039674;28;20472;-52
2022/09/23 00:32:26;;;;;;;6.37;4.13;;;10.80;99.90;;;;;;5040470;28;20503;-56
2022/09/23 00:34:55;;;;;;;6.17;4.40;;;10.80;99.90;;;;;;5039341;28;20459;-54
2022/09/23 00:37:24;;;;;;;5.00;3.90;;;10.80;99.90;;;;;;5040857;28;20468;-54
2022/09/23 00:39:51;;;;;;;5.97;3.73;;;10.80;99.90;;;;;;5040984;28;20472;-55
2022/09/23 00:42:20;;;;;;;4.13;2.90;;;10.90;99.90;;;;;;5040636;28;20530;-53
2022/09/23 00:44:49;;;;;;;8.43;3.50;;;10.90;99.90;;;;;;5040385;28;20475;-53
2022/09/23 00:47:24;;;;;;;7.37;4.27;;;10.90;99.90;;;;;;5042248;28;20478;-53
2022/09/23 00:50:00;;;;;;;7.40;3.47;;;10.90;99.90;;;;;;5044527;28;20468;-53
2022/09/23 00:52:30;;;;;;;6.33;3.70;;;10.90;99.90;;;;;;5044136;28;20471;-49
2022/09/23 00:55:02;;;;;;;6.37;3.37;;;10.90;99.90;;;;;;5043868;28;20502;-51
2022/09/23 00:57:31;;;;;;;3.83;3.17;;;10.90;99.90;;;;;;5044698;28;20515;-52
2022/09/23 00:59:59;;;;;;;4.90;3.50;;;10.90;99.90;;;;;;5043934;28;20777;-54
2022/09/23 01:02:28;;;;;;;7.27;3.40;;;10.90;99.90;;;;;;5044980;28;20455;-51
2022/09/23 01:04:55;;;;;;;5.83;3.67;;;10.90;99.90;;;;;;5044641;28;20472;-50
2022/09/23 01:07:22;;;;;;;7.20;3.60;;;10.90;99.90;;;;;;5043526;28;20901;-49
2022/09/23 01:09:50;;;;;;;6.40;4.07;;;10.90;99.90;;;;;;5042448;28;20941;-55
2022/09/23 01:12:30;;;;;;;5.57;3.30;;;10.90;99.90;;;;;;5042861;28;20468;-53
2022/09/23 01:15:08;;;;;;;5.33;3.67;;;10.80;99.90;;;;;;5043011;28;20545;-53
2022/09/23 01:17:46;;;;;;;6.70;3.40;;;10.70;99.90;;;;;;5043098;28;20444;-54
2022/09/23 01:21:03;;;;;;;5.63;3.77;;;10.70;99.90;;;;;;5042585;28;20551;-55
2022/09/23 01:24:03;;;;;;;4.50;3.80;;;10.60;99.90;;;;;;4963250;29;20459;-52
2022/09/23 01:27:06;;;;;;;4.27;3.80;;;10.50;99.90;;;;;;4962790;29;20483;-55
2022/09/23 01:30:12;;;;;;;6.13;4.37;;;10.30;99.90;;;;;;5008020;28;20454;-53
2022/09/23 01:33:00;;;;;;;9.03;4.23;;;10.30;99.90;;;;;;5012623;28;20495;-55
2022/09/23 01:35:34;;;;;;;7.77;5.37;;;10.20;99.90;;;;;;5043204;28;20506;-56
2022/09/23 01:38:12;;;;;;;6.37;4.40;;;10.10;99.90;;;;;;5043389;28;20432;-55
2022/09/23 01:40:51;;;;;;;9.10;5.27;;;10.00;99.90;;;;;;5042910;28;21165;-56
2022/09/23 01:43:25;;;;;;;5.50;5.00;;;10.00;99.90;;;;;;5043137;28;20450;-55
2022/09/23 01:45:59;;;;;;;7.57;4.60;;;9.90;99.90;;;;;;5042913;28;20468;-55
2022/09/23 01:48:32;;;;;;;4.83;4.03;;;9.70;99.90;;;;;;5043365;28;20455;-53
2022/09/23 01:51:06;;;;;;;11.87;5.17;;;9.60;99.90;;;;;;5043506;28;20515;-54
2022/09/23 01:53:40;;;;;;;7.10;4.87;;;9.60;99.90;;;;;;5046728;28;20494;-53
2022/09/23 01:56:13;;;;;;;5.87;4.47;;;9.60;99.90;;;;;;5043361;28;20482;-53
2022/09/23 01:58:43;;;;;;;5.50;4.10;;;9.60;99.90;;;;;;5043474;28;20435;-51
2022/09/23 02:01:18;;;;;;;6.60;4.67;;;9.60;99.90;;;;;;5042871;28;20821;-53
2022/09/23 02:03:51;;;;;;;7.63;5.23;;;9.60;99.90;;;;;;5043594;28;20442;-51
2022/09/23 02:06:25;;;;;;;7.53;5.00;;;9.50;99.90;;;;;;5043659;28;20472;-54
2022/09/23 02:08:56;;;;;;;9.27;5.10;;;9.50;99.90;;;;;;5043177;28;20440;-55
2022/09/23 02:11:30;;;;;;;6.43;4.80;;;9.50;99.90;;;;;;5042856;28;20538;-54
2022/09/23 02:14:02;;;;;;;8.33;4.73;;;9.50;99.90;;;;;;5043279;28;20467;-53
2022/09/23 02:16:38;;;;;;;7.07;4.70;;;9.50;99.90;;;;;;5043327;28;20472;-55
2022/09/23 02:19:10;;;;;;;6.63;4.50;;;9.50;99.90;;;;;;5043012;28;20438;-54
2022/09/23 02:21:43;;;;;;;6.63;4.93;;;9.50;99.90;;;;;;5042768;28;20530;-51
2022/09/23 02:24:14;;;;;;;7.90;4.23;;;9.50;99.90;;;;;;5042782;28;20433;-54
2022/09/23 02:26:51;;;;;;;5.30;3.90;;;9.60;99.90;;;;;;5042992;28;20444;-56
2022/09/23 02:29:21;;;;;;;8.47;4.17;;;9.60;99.90;;;;;;5042864;28;20439;-55
2022/09/23 02:31:56;;;;;;;7.47;4.40;;;9.50;99.90;;;;;;5042634;28;20479;-55
2022/09/23 02:34:35;;;;;;;7.57;4.97;;;9.50;99.90;;;;;;5042579;28;20479;-53
2022/09/23 02:37:11;;;;;;;9.33;4.70;;;9.60;99.90;;;;;;5046228;28;20475;-53
2022/09/23 02:39:46;;;;;;;7.10;4.00;;;9.60;99.90;;;;;;5042943;28;20435;-49
2022/09/23 02:42:19;;;;;;;5.97;4.50;;;9.60;99.90;;;;;;5042828;28;20760;-54
2022/09/23 02:44:46;;;;;;;6.93;4.90;;;9.60;99.90;;;;;;5042378;28;20432;-53
2022/09/23 02:47:13;;;;;;;6.03;4.33;;;9.60;99.90;;;;;;5041665;28;20786;-51
2022/09/23 02:49:46;;;;;;;7.73;4.90;;;9.60;99.90;;;;;;5041942;28;20510;-54
2022/09/23 02:52:12;;;;;;;7.00;5.03;;;9.60;99.90;;;;;;5041738;28;20488;-52
2022/09/23 02:54:42;;;;;;;4.40;3.53;;;9.70;99.90;;;;;;5041487;28;20436;-53
2022/09/23 02:57:09;;;;;;;6.70;4.37;;;9.70;99.90;;;;;;5041615;28;20454;-53
2022/09/23 02:59:38;;;;;;;5.33;3.70;;;9.80;99.90;;;;;;5041597;28;20467;-54
2022/09/23 03:02:28;;;;;;;9.13;4.13;;;9.80;99.90;;;;;;5042124;28;20444;-55
2022/09/23 03:05:05;;;;;;;5.50;4.20;;;9.80;99.90;;;;;;5025653;28;20475;-53
2022/09/23 03:07:40;;;;;;;6.40;4.10;;;9.80;99.90;;;;;;5041945;28;20451;-54
2022/09/23 03:10:16;;;;;;;6.67;5.03;;;9.80;99.90;;;;;;5041421;28;20451;-55
2022/09/23 03:12:51;;;;;;;7.10;5.10;;;9.80;99.90;;;;;;5041799;28;20534;-52
2022/09/23 03:15:25;;;;;;;7.87;4.60;;;9.80;99.90;;;;;;5041609;28;20495;-55
2022/09/23 03:18:03;;;;;;;7.10;4.63;;;9.80;99.90;;;;;;5041079;28;20444;-52
2022/09/23 03:20:36;;;;;;;8.00;5.00;;;9.80;99.90;;;;;;5041656;28;20439;-52
2022/09/23 03:23:13;;;;;;;5.57;4.33;;;9.80;99.90;;;;;;5045456;28;20464;-55
2022/09/23 03:25:44;;;;;;;5.80;3.70;;;9.80;99.90;;;;;;5044264;28;20448;-50
2022/09/23 03:28:13;;;;;;;7.67;4.40;;;9.70;99.90;;;;;;5044192;28;20436;-56
2022/09/23 03:30:42;;;;;;;8.53;5.73;;;9.70;99.90;;;;;;5044113;28;20498;-51
2022/09/23 03:33:15;;;;;;;5.33;4.70;;;9.70;99.90;;;;;;5044009;28;20473;-53
2022/09/23 03:38:42;;;;;;;6.53;4.40;;;9.60;99.90;;;;;;5044320;28;20412;-53
2022/09/23 03:41:15;;;;;;;5.23;3.90;;;9.60;99.90;;;;;;5045727;28;20511;-48
2022/09/23 03:43:44;;;;;;;6.53;4.13;;;9.60;99.90;;;;;;5045935;28;20437;-52
2022/09/23 03:46:17;;;;;;;10.17;4.63;;;9.60;99.90;;;;;;5043602;28;21019;-55
2022/09/23 03:48:48;;;;;;;6.90;4.77;;;9.50;99.90;;;;;;5044100;28;20510;-55
2022/09/23 03:51:22;;;;;;;12.80;4.70;;;9.50;99.90;;;;;;5044207;28;20459;-50
2022/09/23 03:53:49;;;;;;;5.63;4.10;;;9.40;99.90;;;;;;5044818;28;20541;-52
2022/09/23 03:56:18;;;;;;;4.93;4.20;;;9.40;99.90;;;;;;5044578;28;20482;-53
2022/09/23 03:58:47;;;;;;;5.60;4.10;;;9.30;99.90;;;;;;5044976;28;20459;-51
2022/09/23 04:01:17;;;;;;;7.57;4.63;;;9.30;99.90;;;;;;5045646;28;20574;-56
2022/09/23 04:03:44;;;;;;;5.63;4.47;;;9.30;99.90;;;;;;5045072;28;20519;-54
2022/09/23 04:06:13;;;;;;;4.43;3.73;;;9.30;99.90;;;;;;5046007;28;20531;-53
2022/09/23 04:08:42;;;;;;;5.07;4.10;;;9.30;99.90;;;;;;5045209;28;20448;-55
2022/09/23 04:11:12;;;;;;;8.23;4.27;;;9.30;99.90;;;;;;5044762;28;20459;-55
2022/09/23 04:13:39;;;;;;;10.23;4.00;;;9.20;99.90;;;;;;5045458;28;20964;-53
2022/09/23 04:16:07;;;;;;;8.13;5.20;;;9.20;99.90;;;;;;5045131;28;20478;-55
2022/09/23 04:18:34;;;;;;;5.47;4.00;;;9.10;99.90;;;;;;5044998;28;20424;-52
2022/09/23 04:21:02;;;;;;;5.23;3.97;;;9.10;99.90;;;;;;5044754;28;20802;-54
2022/09/23 04:23:29;;;;;;;8.90;4.17;;;9.10;99.90;;;;;;5044186;28;20511;-54
2022/09/23 04:26:04;;;;;;;7.70;4.23;;;9.10;99.90;;;;;;5044771;28;20876;-52
2022/09/23 04:28:31;;;;;;;5.50;3.87;;;9.20;99.90;;;;;;5044972;28;20500;-55
2022/09/23 04:31:00;;;;;;;6.03;3.53;;;9.20;99.90;;;;;;5044833;28;20511;-50
2022/09/23 04:33:27;;;;;;;4.83;3.73;;;9.20;99.90;;;;;;5044804;28;20468;-52
2022/09/23 04:35:56;;;;;;;5.00;3.90;;;9.20;99.90;;;;;;5045123;28;20450;-51
2022/09/23 04:38:23;;;;;;;6.40;4.60;;;9.20;99.90;;;;;;5045424;28;20452;-51
2022/09/23 04:40:49;;;;;;;5.87;4.07;;;9.20;99.90;;;;;;5044616;28;20436;-53
2022/09/23 04:43:22;;;;;;;4.53;3.57;;;9.20;99.90;;;;;;5044557;28;20964;-53
2022/09/23 04:45:58;;;;;;;7.93;4.90;;;9.20;99.90;;;;;;5045350;28;20448;-56
2022/09/23 04:48:25;;;;;;;9.63;4.73;;;9.20;99.90;;;;;;5044144;28;20962;-56
2022/09/23 04:50:51;;;;;;;5.40;3.67;;;9.20;99.90;;;;;;5045424;28;20769;-53
2022/09/23 04:53:18;;;;;;;8.20;4.73;;;9.20;99.90;;;;;;5045037;28;20490;-54
2022/09/23 04:55:46;;;;;;;5.37;4.30;;;9.20;99.90;;;;;;5044653;28;20836;-53
2022/09/23 04:58:12;;;;;;;6.13;3.30;;;9.10;99.90;;;;;;5043828;28;20836;-55
2022/09/23 05:00:41;;;;;;;6.17;3.00;;;9.10;99.90;;;;;;5044485;28;20454;-53
2022/09/23 05:03:07;;;;;;;10.33;4.77;;;9.10;99.90;;;;;;5043862;28;20479;-55
2022/09/23 05:05:34;;;;;;;8.10;4.57;;;9.00;99.90;;;;;;5044238;28;20447;-54
2022/09/23 05:08:01;;;;;;;5.97;4.00;;;9.00;99.90;;;;;;5044354;28;20450;-53
2022/09/23 05:10:28;;;;;;;7.10;4.27;;;9.00;99.90;;;;;;5044495;28;20475;-54
2022/09/23 05:12:57;;;;;;;8.30;4.73;;;9.00;99.90;;;;;;5044609;28;20480;-53
2022/09/23 05:15:24;;;;;;;7.10;4.30;;;9.00;99.90;;;;;;5044238;28;20458;-51
2022/09/23 05:17:52;;;;;;;7.43;4.33;;;9.00;99.90;;;;;;5045299;28;20472;-48
2022/09/23 05:20:19;;;;;;;8.17;4.00;;;9.00;99.90;;;;;;5045661;28;20444;-53
2022/09/23 05:22:46;;;;;;;7.30;4.73;;;8.90;99.90;;;;;;5044075;28;20469;-58
2022/09/23 05:25:13;;;;;;;6.40;4.40;;;8.90;99.90;;;;;;5045202;28;20440;-54
2022/09/23 05:27:40;;;;;;;6.33;4.10;;;8.90;99.90;;;;;;5044913;28;20468;-54
2022/09/23 05:30:08;;;;;;;4.37;3.23;;;8.90;99.90;;;;;;5044314;28;20920;-53
2022/09/23 05:32:35;;;;;;;4.13;3.73;;;9.00;99.90;;;;;;5044476;28;20496;-56
2022/09/23 05:35:03;;;;;;;6.90;4.27;;;9.00;99.90;;;;;;5047206;28;20531;-56
2022/09/23 05:37:31;;;;;;;6.77;4.33;;;9.00;99.90;;;;;;5048084;28;21010;-54
2022/09/23 05:39:58;;;;;;;5.10;3.67;;;9.00;99.90;;;;;;5047676;28;21059;-56
2022/09/23 05:42:25;;;;;;;4.40;3.97;;;9.00;99.90;;;;;;5047117;28;20478;-55
2022/09/23 05:44:52;;;;;;;7.47;4.10;;;9.00;99.90;;;;;;5047939;28;20937;-56
2022/09/23 05:47:18;;;;;;;8.20;4.43;;;9.00;99.90;;;;;;5047160;28;20452;-55
2022/09/23 05:49:45;;;;;;;5.30;3.70;;;9.00;99.90;;;;;;5047230;28;20448;-52
2022/09/23 05:52:13;;;;;;;6.60;4.30;;;9.00;99.90;;;;;;5047748;28;20569;-51
2022/09/23 05:54:40;;;;;;;6.73;4.00;;;9.10;99.90;;;;;;5047068;28;20444;-55
2022/09/23 05:57:07;;;;;;;6.03;3.40;;;9.10;99.90;;;;;;5047420;28;20502;-50
2022/09/23 05:59:34;;;;;;;6.63;4.23;;;9.10;99.90;;;;;;5047637;28;20478;-50
2022/09/23 06:02:01;;;;;;;8.33;5.27;;;9.20;99.90;;;;;;5046604;28;20456;-53
2022/09/23 06:04:28;;;;;;;7.17;4.03;;;9.20;99.90;;;;;;5046801;28;20440;-53
2022/09/23 06:06:56;;;;;;;5.70;3.63;;;9.20;99.90;;;;;;5045750;28;20495;-53
2022/09/23 06:09:24;;;;;;;7.23;4.90;;;9.30;99.90;;;;;;5046015;28;20448;-49
2022/09/23 06:11:51;;;;;;;4.40;3.57;;;9.30;99.90;;;;;;5046402;28;20440;-54
2022/09/23 06:14:18;;;;;;;10.50;4.37;;;9.40;99.90;;;;;;5045844;28;20433;-54
2022/09/23 06:16:45;;;;;;;5.57;4.00;;;9.40;99.90;;;;;;5045233;28;20448;-52
2022/09/23 06:19:11;;;;;;;8.73;4.40;;;9.40;99.90;;;;;;5045432;28;20535;-52
2022/09/23 06:21:40;;;;;;;7.30;4.30;;;9.50;99.90;;;;;;5044746;28;20466;-54
2022/09/23 06:24:07;;;;;;;5.97;3.97;;;9.50;99.90;;;;;;5044580;28;20460;-57
2022/09/23 06:26:36;;;;;;;4.93;3.47;;;9.60;99.90;;;;;;5044144;28;20448;-56
2022/09/23 06:29:08;;;;;;;6.43;4.23;;;9.60;99.90;;;;;;5045097;28;20524;-55
2022/09/23 06:31:35;;;;;;;5.73;3.90;;;9.70;99.90;;;;;;5044478;28;20467;-51
2022/09/23 06:34:02;;;;;;;9.30;4.90;;;9.80;99.90;;;;;;5044370;28;20520;-55
2022/09/23 06:36:29;;;;;;;8.10;4.53;;;9.80;99.90;;;;;;5044319;28;20484;-52
2022/09/23 06:38:56;;;;;;;7.33;4.53;;;9.90;99.90;;;;;;5044018;28;20441;-55
2022/09/23 06:41:24;;;;;;;4.93;3.40;;;10.00;99.90;;;;;;5045358;28;20443;-56
2022/09/23 06:43:52;;;;;;;6.03;3.70;;;10.00;99.90;;;;;;5043708;28;20474;-56
2022/09/23 06:46:19;;;;;;;3.93;3.47;;;10.10;99.90;;;;;;5042476;28;20524;-55
2022/09/23 06:48:49;;;;;;;7.33;3.97;;;10.20;99.90;;;;;;5043771;28;20765;-55
2022/09/23 06:51:18;;;;;;;6.17;4.17;;;10.20;99.90;;;;;;5043584;28;20763;-55
2022/09/23 06:53:47;;;;;;;5.77;2.87;;;10.30;99.90;;;;;;5044095;28;20488;-58
2022/09/23 06:56:14;;;;;;;3.83;3.43;;;10.40;99.90;;;;;;5044561;28;20452;-54
2022/09/23 06:58:41;;;;;;;6.07;3.40;;;10.40;99.90;;;;;;5044649;28;20544;-55
2022/09/23 07:01:11;;;;;;;9.43;4.83;;;10.50;99.90;;;;;;5043354;28;20467;-55
2022/09/23 07:03:41;;;;;;;5.33;3.60;;;10.60;99.90;;;;;;5043346;28;20551;-54
2022/09/23 07:06:08;;;;;;;6.00;4.23;;;10.70;99.90;;;;;;5043921;28;20452;-54
2022/09/23 07:08:36;;;;;;;6.90;5.00;;;10.80;99.90;;;;;;5043868;28;20479;-53
2022/09/23 07:11:05;;;;;;;33.50;20.90;;;10.90;99.90;;;;;;5042743;28;20505;-55
2022/09/23 07:13:35;;;;;;;6.43;4.03;;;11.00;99.90;;;;;;5041598;28;20499;-58
2022/09/23 07:16:05;;;;;;;6.43;4.80;;;11.10;99.90;;;;;;5040785;28;20441;-50
2022/09/23 07:18:36;;;;;;;7.10;5.50;;;11.20;99.90;;;;;;5040869;28;20559;-57
2022/09/23 07:21:08;;;;;;;7.80;5.13;;;11.40;99.90;;;;;;5040907;28;20463;-52
2022/09/23 07:23:36;;;;;;;15.20;8.03;;;11.50;99.90;;;;;;5040208;28;20500;-54
2022/09/23 07:26:04;;;;;;;13.00;7.80;;;11.70;99.90;;;;;;5040109;28;20475;-52
2022/09/23 07:28:31;;;;;;;10.60;5.70;;;11.80;99.90;;;;;;5040177;28;20476;-56
2022/09/23 07:31:04;;;;;;;5.47;4.23;;;12.00;99.90;;;;;;5040865;28;20766;-55
2022/09/23 07:33:31;;;;;;;6.30;4.37;;;12.10;99.90;;;;;;5039966;28;20500;-52
2022/09/23 07:35:59;;;;;;;7.00;4.93;;;12.20;99.90;;;;;;5040288;28;20444;-52
2022/09/23 07:38:28;;;;;;;6.03;4.27;;;12.20;99.90;;;;;;5040551;28;20743;-53
2022/09/23 07:41:00;;;;;;;6.60;5.00;;;12.30;99.90;;;;;;5040359;28;20479;-55
2022/09/23 07:43:28;;;;;;;5.30;4.57;;;12.40;99.90;;;;;;5039858;28;20490;-55
2022/09/23 07:45:57;;;;;;;5.93;4.67;;;12.50;99.90;;;;;;5039886;28;20486;-56
2022/09/23 07:48:23;;;;;;;4.23;3.73;;;12.60;99.90;;;;;;5039592;28;20484;-55
2022/09/23 07:50:50;;;;;;;7.50;4.30;;;12.70;99.90;;;;;;5039846;28;20747;-54
2022/09/23 07:53:19;;;;;;;7.27;5.07;;;12.80;99.90;;;;;;5039141;28;20516;-53
2022/09/23 07:55:52;;;;;;;5.73;3.83;;;12.90;99.90;;;;;;5039929;28;20460;-55
2022/09/23 07:58:19;;;;;;;6.57;4.00;;;13.00;99.90;;;;;;5039043;28;20950;-52
2022/09/23 08:00:46;;;;;;;4.43;3.67;;;13.20;99.90;;;;;;5040797;28;20470;-54
2022/09/23 08:03:13;;;;;;;3.53;3.20;;;13.30;99.90;;;;;;5041212;28;20464;-53
2022/09/23 08:05:40;;;;;;;3.47;3.10;;;13.30;99.90;;;;;;5040447;28;20454;-53
2022/09/23 08:08:07;;;;;;;3.70;3.20;;;13.40;99.90;;;;;;5039709;28;20491;-54
2022/09/23 08:10:36;;;;;;;3.50;3.20;;;13.50;99.90;;;;;;5039898;28;20821;-56
2022/09/23 08:13:03;;;;;;;5.67;3.63;;;13.60;99.90;;;;;;5039082;28;20506;-55
2022/09/23 08:15:30;;;;;;;5.40;4.53;;;13.80;99.90;;;;;;5039791;28;20971;-54
2022/09/23 08:18:00;;;;;;;4.87;3.70;;;14.00;99.90;;;;;;5038587;28;20475;-54
2022/09/23 08:20:46;;;;;;;3.70;3.00;;;14.50;99.90;;;;;;5038189;28;20444;-53
2022/09/23 08:23:14;;;;;;;3.53;2.93;;;15.80;99.90;;;;;;5037619;28;20526;-55
2022/09/23 08:25:44;;;;;;;4.40;3.17;;;17.70;99.90;;;;;;5036971;28;20448;-52
2022/09/23 08:28:14;;;;;;;4.20;3.37;;;19.70;99.90;;;;;;5036843;28;20476;-55
2022/09/23 08:30:42;;;;;;;12.40;4.00;;;21.20;99.90;;;;;;5036339;28;20541;-55
2022/09/23 08:33:08;;;;;;;5.83;3.77;;;22.40;94.80;;;;;;5036154;28;20488;-57
2022/09/23 08:35:35;;;;;;;4.17;3.30;;;23.50;89.20;;;;;;5035986;28;20510;-54
2022/09/23 08:38:02;;;;;;;4.67;3.00;;;24.40;84.30;;;;;;5035425;28;20533;-54
2022/09/23 08:40:29;;;;;;;4.50;3.50;;;25.40;75.20;;;;;;5035923;28;20432;-55
2022/09/23 08:42:57;;;;;;;4.90;3.70;;;26.20;68.40;;;;;;5035442;28;20472;-56
2022/09/23 08:45:26;;;;;;;48.27;35.70;;;26.60;65.50;;;;;;5035638;28;20424;-56
2022/09/23 08:47:59;;;;;;;4.47;3.90;;;26.90;61.70;;;;;;5035163;28;20455;-54
2022/09/23 08:50:30;;;;;;;5.07;3.20;;;27.40;60.40;;;;;;5035317;28;20793;-54
2022/09/23 08:53:00;;;;;;;6.60;3.90;;;27.70;57.50;;;;;;5035026;28;20476;-52
2022/09/23 08:55:33;;;;;;;4.50;3.10;;;27.50;56.80;;;;;;5035085;28;20416;-54
2022/09/23 08:58:18;;;;;;;8.10;4.50;;;27.20;56.20;;;;;;5034763;28;20437;-55
2022/09/23 09:00:53;;;;;;;3.33;2.63;;;26.80;56.60;;;;;;5035051;28;20432;-52
2022/09/23 09:03:23;;;;;;;3.73;3.43;;;26.50;57.00;;;;;;5034930;28;20470;-53
2022/09/23 09:05:52;;;;;;;34.27;6.00;;;26.40;56.90;;;;;;5035121;28;20755;-55
2022/09/23 09:08:24;;;;;;;8.77;3.10;;;26.10;57.70;;;;;;5035178;28;20468;-53
2022/09/23 09:10:54;;;;;;;8.63;2.90;;;26.10;57.10;;;;;;5039091;28;20780;-52
2022/09/23 09:13:30;;;;;;;2.73;2.20;;;25.70;57.80;;;;;;5038798;28;20529;-52
2022/09/23 09:16:13;;;;;;;4.00;2.60;;;25.50;58.20;;;;;;5039230;28;20444;-55
2022/09/23 09:18:48;;;;;;;4.57;2.77;;;25.60;57.90;;;;;;5039535;28;20485;-49
2022/09/23 09:21:15;;;;;;;3.50;3.20;;;25.20;58.30;;;;;;5041763;28;20428;-56
2022/09/23 09:23:52;;;;;;;11.67;4.00;;;24.20;58.70;;;;;;5039581;28;20470;-51
2022/09/23 09:26:22;;;;;;;3.30;2.97;;;23.30;60.60;;;;;;5038872;28;20896;-56
2022/09/23 09:28:55;;;;;;;16.40;6.50;;;22.60;62.70;;;;;;5039369;28;20550;-54
2022/09/23 09:31:28;;;;;;;4.47;3.03;;;21.90;65.30;;;;;;5039156;28;20939;-54
2022/09/23 09:34:02;;;;;;;3.93;2.73;;;21.60;66.80;;;;;;5038955;28;20488;-54
2022/09/23 09:36:37;;;;;;;2.67;2.40;;;22.10;67.00;;;;;;5039236;28;20440;-54
2022/09/23 09:39:05;;;;;;;2.67;2.20;;;23.00;65.30;;;;;;5038805;28;20571;-60
2022/09/23 09:41:33;;;;;;;3.73;2.57;;;23.60;63.60;;;;;;5038746;28;20479;-53
2022/09/23 09:44:09;;;;;;;3.03;2.20;;;24.40;62.50;;;;;;5038817;28;20830;-54
2022/09/23 09:46:46;;;;;;;4.13;2.53;;;24.90;60.90;;;;;;5038294;28;20463;-54
2022/09/23 09:49:22;;;;;;;5.33;3.90;;;25.40;59.20;;;;;;5038171;28;20471;-54
2022/09/23 09:52:02;;;;;;;10.90;2.37;;;25.90;58.10;;;;;;5038216;28;20478;-52
2022/09/23 09:54:30;;;;;;;2.53;1.87;;;26.30;56.60;;;;;;5037999;28;20582;-53
2022/09/23 09:56:57;;;;;;;3.00;2.63;;;26.70;56.10;;;;;;5038315;28;20475;-55
2022/09/23 09:59:28;;;;;;;3.07;2.10;;;26.90;55.70;;;;;;5037970;28;20483;-54
2022/09/23 10:02:14;;;;;;;1.80;1.70;;;26.50;54.40;;;;;;5038061;28;20498;-54
2022/09/23 10:04:41;;;;;;;4.90;4.03;;;26.50;54.60;;;;;;5038300;28;20464;-55
2022/09/23 10:07:12;;;;;;;2.50;2.13;;;26.80;54.10;;;;;;5037882;28;20502;-53
2022/09/23 10:09:47;;;;;;;11.57;5.50;;;27.00;52.60;;;;;;5037945;28;20460;-51
2022/09/23 10:12:17;;;;;;;5.27;2.37;;;26.80;53.40;;;;;;5038312;28;20757;-55
2022/09/23 10:14:49;;;;;;;3.27;2.30;;;26.60;51.50;;;;;;5037611;28;20532;-54
2022/09/23 10:17:20;;;;;;;4.93;2.10;;;26.30;52.50;;;;;;5037794;28;20432;-53
2022/09/23 10:19:52;;;;;;;18.50;7.88;;;26.00;51.80;;;;;;5037679;28;20472;-50
2022/09/23 10:22:23;;;;;;;27.90;10.40;;;25.60;51.50;;;;;;5038370;28;20304;-52
2022/09/23 10:24:54;;;;;;;5.13;3.17;;;25.10;52.10;;;;;;5037911;28;20467;-52
2022/09/23 10:27:30;;;;;;;4.47;2.50;;;24.50;53.00;;;;;;5037414;28;20433;-53
2022/09/23 10:30:00;;;;;;;2.10;1.90;;;24.30;53.60;;;;;;5038138;28;20463;-50
2022/09/23 10:32:30;;;;;;;2.27;1.77;;;24.30;53.60;;;;;;5038395;28;20448;-52
2022/09/23 10:35:01;;;;;;;2.07;1.77;;;24.10;53.50;;;;;;5038315;28;20523;-53
2022/09/23 10:37:35;;;;;;;2.20;1.67;;;23.90;53.70;;;;;;5038512;28;20436;-55
2022/09/23 10:49:01;;;;;;;2.20;1.50;;;24.30;54.00;;;;;;5037465;28;20411;-54
2022/09/23 10:51:38;;;;;;;1.57;1.40;;;24.10;54.30;;;;;;5038212;28;20455;-50
2022/09/23 10:54:17;;;;;;;3.90;2.00;;;23.50;53.80;;;;;;5038550;28;20471;-53
2022/09/23 10:56:48;;;;;;;2.60;1.77;;;23.10;54.70;;;;;;5039240;28;20910;-51
2022/09/23 10:59:50;;;;;;;1.80;1.50;;;22.90;54.90;;;;;;5037934;28;20804;-52
2022/09/23 11:02:46;;;;;;;2.10;1.83;;;22.70;55.50;;;;;;5030109;28;20479;-49
2022/09/23 11:05:33;;;;;;;2.17;1.67;;;22.30;57.30;;;;;;5036942;28;20560;-51
2022/09/23 11:08:17;;;;;;;2.13;1.70;;;21.90;59.50;;;;;;5037412;28;20916;-53
2022/09/23 11:10:55;;;;;;;2.37;2.10;;;21.80;58.50;;;;;;5037644;28;20472;-55
2022/09/23 11:13:40;;;;;;;2.80;1.90;;;21.60;58.50;;;;;;5037748;28;20519;-55
2022/09/23 11:16:18;;;;;;;2.27;1.87;;;21.30;57.80;;;;;;5037925;28;20475;-54
2022/09/23 11:19:23;;;;;;;2.70;1.97;;;21.10;58.40;;;;;;5037834;28;20444;-58
2022/09/23 11:22:09;;;;;;;2.60;2.20;;;20.80;59.60;;;;;;4998342;28;20435;-53
2022/09/23 11:24:59;;;;;;;3.17;2.10;;;20.60;60.10;;;;;;5038737;28;20475;-52
2022/09/23 11:27:43;;;;;;;3.30;2.80;;;20.30;61.80;;;;;;5035457;28;20547;-51
2022/09/23 11:30:12;;;;;;;2.80;1.60;;;20.30;61.50;;;;;;5037767;28;20468;-56
2022/09/23 11:32:54;;;;;;;2.67;1.93;;;20.20;60.70;;;;;;5039128;28;20476;-58
2022/09/23 11:35:27;;;;;;;2.10;1.70;;;20.10;61.40;;;;;;5038922;28;20559;-56
2022/09/23 11:37:58;;;;;;;1.70;1.53;;;19.80;62.00;;;;;;5039456;28;20439;-58
2022/09/23 11:40:30;;;;;;;3.13;1.73;;;19.70;62.80;;;;;;5039401;28;20478;-59
2022/09/23 11:43:00;;;;;;;2.20;2.00;;;19.50;62.30;;;;;;5039141;28;20427;-56
2022/09/23 11:45:31;;;;;;;1.73;1.63;;;19.40;62.70;;;;;;5039193;28;20474;-56
2022/09/23 11:48:02;;;;;;;2.57;1.73;;;19.50;63.90;;;;;;5038874;28;20451;-58
2022/09/23 11:50:36;;;;;;;1.60;1.50;;;19.40;64.10;;;;;;5039020;28;20583;-59
2022/09/23 11:53:07;;;;;;;2.13;1.80;;;19.40;63.60;;;;;;5038929;28;20445;-58
2022/09/23 11:55:43;;;;;;;2.67;2.10;;;19.40;62.70;;;;;;5039094;28;20491;-58
2022/09/23 11:58:14;;;;;;;2.27;1.40;;;19.40;63.30;;;;;;5039112;28;20432;-59
2022/09/23 12:00:49;;;;;;;2.90;1.00;;;19.30;63.60;;;;;;5038683;28;20485;-58
2022/09/23 12:03:24;;;;;;;2.03;1.83;;;19.20;65.70;;;;;;5038347;28;20440;-52
2022/09/23 12:05:59;;;;;;;1.57;1.47;;;19.10;65.50;;;;;;5038834;28;20459;-57
2022/09/23 12:08:28;;;;;;;2.80;1.97;;;19.20;65.40;;;;;;5039465;28;20467;-55
2022/09/23 12:11:04;;;;;;;5.43;2.27;;;19.20;67.10;;;;;;5038770;28;20484;-55
2022/09/23 12:13:39;;;;;;;2.30;1.93;;;19.20;66.00;;;;;;5039187;28;20443;-54
2022/09/23 12:16:25;;;;;;;2.40;1.57;;;19.10;67.10;;;;;;5039103;28;20502;-56
2022/09/23 12:19:03;;;;;;;2.77;2.00;;;19.10;67.60;;;;;;5039012;28;20437;-58
2022/09/23 12:21:43;;;;;;;5.47;1.90;;;19.10;66.90;;;;;;5039029;28;21091;-59
2022/09/23 12:24:25;;;;;;;2.00;1.80;;;19.20;67.20;;;;;;5038650;28;20428;-57
2022/09/23 12:26:56;;;;;;;2.40;1.70;;;19.20;67.90;;;;;;5038620;28;20593;-58
2022/09/23 12:29:27;;;;;;;3.57;1.90;;;19.20;66.70;;;;;;5039068;28;20815;-54
2022/09/23 12:31:54;;;;;;;2.13;1.70;;;19.30;66.10;;;;;;5038087;28;20862;-56
2022/09/23 12:34:27;;;;;;;1.80;1.70;;;19.30;67.00;;;;;;5038657;28;20479;-58
2022/09/23 12:37:02;;;;;;;1.70;1.60;;;19.30;64.70;;;;;;5039133;28;20452;-59
2022/09/23 12:39:31;;;;;;;2.33;2.13;;;19.40;64.20;;;;;;5039359;28;20428;-59
2022/09/23 12:42:02;;;;;;;2.43;1.87;;;19.40;66.00;;;;;;5038591;28;20458;-57
2022/09/23 12:44:34;;;;;;;2.27;2.07;;;19.30;65.30;;;;;;5040481;28;20455;-58
2022/09/23 12:47:38;;;;;;;2.40;1.97;;;19.30;67.20;;;;;;5041632;28;20459;-59
2022/09/23 12:50:42;;;;;;;1.43;1.30;;;19.40;66.60;;;;;;5041141;28;20486;-59
2022/09/23 12:53:53;;;;;;;1.47;1.23;;;19.50;64.60;;;;;;5040750;28;20920;-55
2022/09/23 12:56:23;;;;;;;2.47;1.60;;;19.50;63.40;;;;;;5041070;28;20755;-59
2022/09/23 12:59:19;;;;;;;1.67;1.57;;;19.50;63.80;;;;;;5041038;28;20432;-59
2022/09/23 13:01:46;;;;;;;2.10;1.70;;;19.50;64.40;;;;;;5040522;28;20492;-55
2022/09/23 13:07:25;;;;;;;2.20;1.70;;;19.60;62.60;;;;;;5041136;28;20427;-57
2022/09/23 13:09:55;;;;;;;2.00;1.50;;;19.60;63.00;;;;;;5040484;28;20443;-58
2022/09/23 13:12:29;;;;;;;2.30;1.87;;;19.70;62.50;;;;;;5040581;28;20424;-59
2022/09/23 13:15:04;;;;;;;2.00;1.73;;;19.90;62.10;;;;;;5040555;28;20997;-58
2022/09/23 13:17:34;;;;;;;2.03;1.60;;;19.90;60.50;;;;;;5040535;28;20459;-57
2022/09/23 13:20:05;;;;;;;2.70;2.00;;;19.90;62.40;;;;;;5040186;28;20488;-59
2022/09/23 13:22:41;;;;;;;2.23;1.50;;;19.90;64.40;;;;;;5040703;28;20459;-59
2022/09/23 13:25:18;;;;;;;3.27;2.20;;;19.80;65.30;;;;;;5040470;28;20464;-56
2022/09/23 13:27:50;;;;;;;3.93;2.07;;;19.70;66.40;;;;;;5040465;28;20423;-56
2022/09/23 13:30:19;;;;;;;3.10;1.77;;;19.60;65.00;;;;;;5040395;28;20428;-57